createdAt,value
2023-01-17T00:00:56.684Z,97240.97
2023-01-17T00:04:01.973Z,97244.25
2023-01-17T00:07:06.258Z,97236.97
2023-01-17T00:09:54.444Z,97238.47
2023-01-17T00:12:39.717Z,97239.22
2023-01-17T00:15:26.528Z,97238.47
2023-01-17T00:18:11.499Z,97238.38
2023-01-17T00:21:15.076Z,97238.75
2023-01-17T00:24:18.940Z,97249.47
2023-01-17T00:27:13.281Z,97251.38
2023-01-17T00:29:58.079Z,97257.53
2023-01-17T00:32:43.116Z,97255.53
2023-01-17T00:35:30.054Z,97258.50
2023-01-17T00:38:21.592Z,97257.81
2023-01-17T00:41:12.903Z,97261.59
2023-01-17T00:44:16.829Z,97271.91
2023-01-17T00:47:20.602Z,97283.38
2023-01-17T00:50:24.549Z,97278.44
2023-01-17T00:53:28.389Z,97288.59
2023-01-17T00:56:32.165Z,97284.78
2023-01-17T00:59:35.956Z,97292.44
2023-01-17T01:02:40.674Z,97287.53
2023-01-17T01:05:44.379Z,97282.31
2023-01-17T01:08:49.314Z,97292.22
2023-01-17T01:11:53.704Z,97293.69
2023-01-17T01:14:57.522Z,97289.81
2023-01-17T01:18:03.524Z,97289.28
2023-01-17T01:21:07.359Z,97284.03
2023-01-17T01:24:11.266Z,97294.16
2023-01-17T01:27:15.719Z,97302.00
2023-01-17T01:30:19.493Z,97301.25
2023-01-17T01:33:21.216Z,97304.28
2023-01-17T01:36:09.030Z,97306.03
2023-01-17T01:38:54.503Z,97304.28
2023-01-17T01:41:39.954Z,97302.63
2023-01-17T01:44:44.910Z,97304.44
2023-01-17T01:47:35.567Z,97312.78
2023-01-17T01:50:21.348Z,97306.72
2023-01-17T01:53:07.851Z,97310.50
2023-01-17T01:55:53.109Z,97306.59
2023-01-17T01:58:40.501Z,97304.13
2023-01-17T02:01:25.797Z,97301.47
2023-01-17T02:04:11.485Z,97303.84
2023-01-17T02:07:03.945Z,97306.97
2023-01-17T02:09:48.855Z,97307.00
2023-01-17T02:12:34.631Z,97297.69
2023-01-17T02:15:27.785Z,97309.91
2023-01-17T02:18:26.265Z,97303.69
2023-01-17T02:21:28.152Z,97312.34
2023-01-17T02:24:33.002Z,97307.34
2023-01-17T02:27:42.783Z,97311.66
2023-01-17T02:30:33.528Z,97309.91
2023-01-17T02:33:36.960Z,97313.16
2023-01-17T02:36:44.859Z,97314.91
2023-01-17T02:39:40.038Z,97312.25
2023-01-17T02:42:31.504Z,97321.53
2023-01-17T02:45:18.749Z,97324.03
2023-01-17T02:48:08.218Z,97328.41
2023-01-17T02:51:21.075Z,97335.00
2023-01-17T02:54:15.350Z,97335.31
2023-01-17T02:57:46.680Z,97338.72
2023-01-17T03:00:42.277Z,97345.47
2023-01-17T03:03:47.066Z,97348.34
2023-01-17T03:06:37.656Z,97354.69
2023-01-17T03:09:25.426Z,97358.72
2023-01-17T03:12:10.586Z,97364.41
2023-01-17T03:14:55.627Z,97373.13
2023-01-17T03:17:46.551Z,97370.47
2023-01-17T03:20:32.033Z,97385.09
2023-01-17T03:23:16.966Z,97391.16
2023-01-17T03:26:01.935Z,97390.38
2023-01-17T03:28:47.208Z,97392.34
2023-01-17T03:31:32.564Z,97402.09
2023-01-17T03:34:17.760Z,97405.53
2023-01-17T03:37:02.568Z,97412.41
2023-01-17T03:39:47.467Z,97415.97
2023-01-17T03:42:32.289Z,97417.66
2023-01-17T03:45:17.352Z,97420.22
2023-01-17T03:48:02.490Z,97426.22
2023-01-17T03:50:51.487Z,97429.78
2023-01-17T03:53:36.410Z,97439.16
2023-01-17T03:56:21.358Z,97446.91
2023-01-17T03:59:06.148Z,97437.34
2023-01-17T04:01:51.355Z,97458.94
2023-01-17T04:04:36.240Z,97456.72
2023-01-17T04:07:23.038Z,97461.03
2023-01-17T04:10:08.838Z,97456.88
2023-01-17T04:12:54.189Z,97461.88
2023-01-17T04:15:39.611Z,97460.72
2023-01-17T04:18:25.424Z,97459.38
2023-01-17T04:21:10.657Z,97460.88
2023-01-17T04:23:55.723Z,97467.63
2023-01-17T04:26:41.090Z,97459.91
2023-01-17T04:29:26.082Z,97460.03
2023-01-17T04:32:11.277Z,97454.06
2023-01-17T04:34:56.548Z,97462.97
2023-01-17T04:37:41.319Z,97458.38
2023-01-17T04:40:26.504Z,97469.44
2023-01-17T04:43:11.630Z,97466.78
2023-01-17T04:45:58.088Z,97470.22
2023-01-17T04:48:43.135Z,97480.50
2023-01-17T04:51:28.017Z,97482.06
2023-01-17T04:54:12.817Z,97478.00
2023-01-17T04:56:58.078Z,97480.50
2023-01-17T04:59:44.218Z,97482.91
2023-01-17T05:02:29.148Z,97485.47
2023-01-17T05:05:14.558Z,97485.56
2023-01-17T05:07:59.908Z,97487.28
2023-01-17T05:10:46.177Z,97493.41
2023-01-17T05:13:31.427Z,97479.75
2023-01-17T05:16:19.729Z,97485.81
2023-01-17T05:19:04.632Z,97496.88
2023-01-17T05:21:49.835Z,97495.34
2023-01-17T05:24:34.891Z,97508.09
2023-01-17T05:27:19.853Z,97508.94
2023-01-17T05:30:05.469Z,97515.41
2023-01-17T05:32:52.291Z,97521.47
2023-01-17T05:35:38.148Z,97526.63
2023-01-17T05:38:23.791Z,97519.81
2023-01-17T05:41:09.060Z,97530.03
2023-01-17T05:43:53.927Z,97536.09
2023-01-17T05:46:38.739Z,97538.91
2023-01-17T05:49:23.941Z,97549.00
2023-01-17T05:52:09.749Z,97559.56
2023-01-17T05:54:55.066Z,97551.00
2023-01-17T05:57:39.952Z,97560.25
2023-01-17T06:00:25.387Z,97571.63
2023-01-17T06:03:11.275Z,97579.09
2023-01-17T06:05:56.494Z,97581.03
2023-01-17T06:08:41.406Z,97591.31
2023-01-17T06:11:26.963Z,97614.56
2023-01-17T06:14:12.473Z,97601.63
2023-01-17T06:16:57.349Z,97607.25
2023-01-17T06:19:42.322Z,97622.00
2023-01-17T06:22:27.345Z,97619.28
2023-01-17T06:25:12.996Z,97624.28
2023-01-17T06:27:58.122Z,97634.88
2023-01-17T06:30:43.864Z,97644.38
2023-01-17T06:33:28.698Z,97651.56
2023-01-17T06:36:14.982Z,97655.41
2023-01-17T06:38:59.844Z,97665.66
2023-01-17T06:41:44.724Z,97670.94
2023-01-17T06:44:29.696Z,97681.22
2023-01-17T06:47:14.538Z,97687.44
2023-01-17T06:50:01.201Z,97699.72
2023-01-17T06:52:59.511Z,97701.22
2023-01-17T06:55:44.335Z,97716.16
2023-01-17T06:58:29.565Z,97713.25
2023-01-17T07:01:14.659Z,97728.00
2023-01-17T07:04:00.349Z,97741.94
2023-01-17T07:06:45.415Z,97740.22
2023-01-17T07:09:30.302Z,97747.97
2023-01-17T07:12:15.200Z,97758.00
2023-01-17T07:14:59.972Z,97765.00
2023-01-17T07:17:44.950Z,97768.88
2023-01-17T07:20:30.637Z,97774.81
2023-01-17T07:23:15.859Z,97778.00
2023-01-17T07:26:01.160Z,97788.34
2023-01-17T07:28:46.295Z,97785.78
2023-01-17T07:31:39.322Z,97801.31
2023-01-17T07:34:24.171Z,97804.75
2023-01-17T07:37:09.001Z,97813.16
2023-01-17T07:39:54.561Z,97825.59
2023-01-17T07:42:39.340Z,97819.91
2023-01-17T07:45:24.215Z,97822.06
2023-01-17T07:48:09.106Z,97832.31
2023-01-17T07:50:56.789Z,97829.88
2023-01-17T07:53:42.017Z,97836.91
2023-01-17T07:56:26.738Z,97841.97
2023-01-17T07:59:11.690Z,97839.78
2023-01-17T08:01:56.859Z,97847.75
2023-01-17T08:04:42.005Z,97860.75
2023-01-17T08:07:26.867Z,97854.63
2023-01-17T08:10:13.299Z,97858.03
2023-01-17T08:12:58.540Z,97863.75
2023-01-17T08:15:43.707Z,97847.94
2023-01-17T08:18:30.091Z,97856.28
2023-01-17T08:21:16.735Z,97861.53
2023-01-17T08:24:01.904Z,97862.75
2023-01-17T08:26:46.609Z,97872.25
2023-01-17T08:29:31.781Z,97877.97
2023-01-17T08:32:17.040Z,97881.47
2023-01-17T08:35:02.290Z,97891.81
2023-01-17T08:37:47.933Z,97897.56
2023-01-17T08:40:33.402Z,97904.59
2023-01-17T08:43:18.695Z,97909.50
2023-01-17T08:46:06.158Z,97916.00
2023-01-17T08:48:56.413Z,97934.47
2023-01-17T08:51:41.695Z,97931.53
2023-01-17T08:54:26.966Z,97948.56
2023-01-17T08:57:11.809Z,97934.69
2023-01-17T08:59:56.628Z,97949.97
2023-01-17T09:02:41.432Z,97947.28
2023-01-17T09:05:28.491Z,97951.22
2023-01-17T09:08:13.385Z,97953.91
2023-01-17T09:10:59.698Z,97950.44
2023-01-17T09:13:44.684Z,97959.25
2023-01-17T09:16:30.472Z,97980.50
2023-01-17T09:19:15.469Z,97975.47
2023-01-17T09:22:00.295Z,97976.19
2023-01-17T09:24:45.375Z,97991.19
2023-01-17T09:27:30.599Z,97984.00
2023-01-17T09:30:15.958Z,97987.22
2023-01-17T09:33:00.898Z,97990.41
2023-01-17T09:35:46.705Z,97991.44
2023-01-17T09:38:32.219Z,97999.56
2023-01-17T09:41:23.638Z,97999.38
2023-01-17T09:44:47.130Z,98006.00
2023-01-17T09:47:39.195Z,98006.19
2023-01-17T09:50:43.526Z,98002.59
2023-01-17T09:53:33.839Z,98004.59
2023-01-17T09:56:31.042Z,98010.56
2023-01-17T09:59:35.390Z,98016.63
2023-01-17T10:02:41.816Z,98019.47
2023-01-17T10:05:33.952Z,98018.31
2023-01-17T10:08:27.804Z,98028.94
2023-01-17T10:11:18.711Z,98030.28
2023-01-17T10:14:22.255Z,98023.50
2023-01-17T10:17:24.356Z,98023.34
2023-01-17T10:20:33.789Z,98029.03
2023-01-17T10:23:34.940Z,98023.53
2023-01-17T10:26:27.327Z,98037.59
2023-01-17T10:29:20.164Z,98018.50
2023-01-17T10:32:06.490Z,98021.78
2023-01-17T10:34:52.608Z,98026.03
2023-01-17T10:37:43.935Z,98027.00
2023-01-17T10:40:57.380Z,98041.00
2023-01-17T10:43:56.112Z,98049.31
2023-01-17T10:46:56.498Z,98045.28
2023-01-17T10:49:46.875Z,98047.69
2023-01-17T10:52:45.144Z,98051.31
2023-01-17T10:55:43.899Z,98049.00
2023-01-17T10:58:28.880Z,98045.28
2023-01-17T11:01:20.944Z,98051.31
2023-01-17T11:04:18.248Z,98051.78
2023-01-17T11:07:17.378Z,98054.66
2023-01-17T11:10:02.125Z,98063.94
2023-01-17T11:12:47.261Z,98058.91
2023-01-17T11:15:38.076Z,98056.75
2023-01-17T11:18:27.394Z,98057.50
2023-01-17T11:21:23.228Z,98067.38
2023-01-17T11:24:16.855Z,98064.38
2023-01-17T11:27:05.379Z,98065.88
2023-01-17T11:30:18.086Z,98060.78
2023-01-17T11:33:06.959Z,98064.72
2023-01-17T11:35:52.107Z,98067.00
2023-01-17T11:38:38.748Z,98073.13
2023-01-17T11:41:25.485Z,98065.00
2023-01-17T11:44:27.162Z,98063.84
2023-01-17T11:47:12.016Z,98057.78
2023-01-17T11:49:58.652Z,98063.19
2023-01-17T11:52:44.053Z,98052.47
2023-01-17T11:55:28.822Z,98066.63
2023-01-17T11:58:15.233Z,98049.13
2023-01-17T12:01:13.063Z,98053.09
2023-01-17T12:04:39.514Z,98057.47
2023-01-17T12:07:54.360Z,98059.13
2023-01-17T12:11:08.599Z,98051.59
2023-01-17T12:14:20.676Z,98064.91
2023-01-17T12:17:34.671Z,98051.06
2023-01-17T12:20:41.389Z,98053.16
2023-01-17T12:23:38.070Z,98052.00
2023-01-17T12:26:29.146Z,98057.69
2023-01-17T12:29:38.801Z,98065.78
2023-01-17T12:32:55.261Z,98074.94
2023-01-17T12:35:50.771Z,98078.88
2023-01-17T12:38:38.558Z,98081.63
2023-01-17T12:41:36.664Z,98089.22
2023-01-17T12:44:37.281Z,98084.06
2023-01-17T12:47:22.241Z,98088.97
2023-01-17T12:50:21.156Z,98085.72
2023-01-17T12:53:29.079Z,98095.22
2023-01-17T12:56:27.944Z,98089.59
2023-01-17T12:59:19.891Z,98078.41
2023-01-17T13:02:20.395Z,98081.47
2023-01-17T13:05:34.349Z,98081.56
2023-01-17T13:08:48.254Z,98090.44
2023-01-17T13:11:45.858Z,98096.88
2023-01-17T13:14:30.847Z,98095.31
2023-01-17T13:17:39.262Z,98100.25
2023-01-17T13:20:32.959Z,98101.53
2023-01-17T13:24:03.953Z,98103.19
2023-01-17T13:26:55.545Z,98109.25
2023-01-17T13:30:04.540Z,98120.75
2023-01-17T13:33:06.932Z,98123.53
2023-01-17T13:36:25.355Z,98130.06
2023-01-17T13:39:52.119Z,98132.56
2023-01-17T13:42:58.222Z,98125.63
2023-01-17T13:45:55.945Z,98131.91
2023-01-17T13:48:41.166Z,98142.88
2023-01-17T13:52:01.308Z,98145.97
2023-01-17T13:54:51.705Z,98152.50
2023-01-17T13:57:46.037Z,98156.34
2023-01-17T14:00:49.294Z,98163.31
2023-01-17T14:03:57.687Z,98163.13
2023-01-17T14:06:53.231Z,98164.38
2023-01-17T14:09:44.827Z,98161.16
2023-01-17T14:12:33.229Z,98164.19
2023-01-17T14:15:25.322Z,98164.63
2023-01-17T14:18:38.302Z,98169.44
2023-01-17T14:21:28.564Z,98183.63
2023-01-17T14:24:15.972Z,98176.09
2023-01-17T14:27:16.385Z,98194.59
2023-01-17T14:30:04.898Z,98205.66
2023-01-17T14:33:00.095Z,98204.25
2023-01-17T14:36:06.585Z,98206.22
2023-01-17T14:38:52.101Z,98212.03
2023-01-17T14:41:37.498Z,98215.75
2023-01-17T14:44:23.687Z,98217.06
2023-01-17T14:47:13.862Z,98217.56
2023-01-17T14:50:17.426Z,98223.69
2023-01-17T14:53:11.997Z,98217.63
2023-01-17T14:55:58.752Z,98223.56
2023-01-17T14:58:46.368Z,98229.16
2023-01-17T15:01:32.531Z,98225.69
2023-01-17T15:04:26.943Z,98227.38
2023-01-17T15:07:16.882Z,98225.69
2023-01-17T15:10:03.727Z,98225.78
2023-01-17T15:12:48.522Z,98223.31
2023-01-17T15:15:37.267Z,98225.50
2023-01-17T15:18:30.023Z,98227.22
2023-01-17T15:21:19.222Z,98236.75
2023-01-17T15:24:08.661Z,98235.72
2023-01-17T15:26:54.509Z,98241.19
2023-01-17T15:29:40.284Z,98237.47
2023-01-17T15:32:34.335Z,98237.47
2023-01-17T15:35:20.550Z,98248.34
2023-01-17T15:38:05.596Z,98244.31
2023-01-17T15:40:50.857Z,98250.31
2023-01-17T15:43:36.087Z,98237.44
2023-01-17T15:46:23.819Z,98252.59
2023-01-17T15:49:17.384Z,98255.28
2023-01-17T15:52:04.722Z,98257.22
2023-01-17T15:54:53.292Z,98252.03
2023-01-17T15:57:38.831Z,98249.00
2023-01-17T16:00:46.992Z,98267.72
2023-01-17T16:03:32.228Z,98255.81
2023-01-17T16:06:49.687Z,98259.63
2023-01-17T16:09:44.633Z,98256.91
2023-01-17T16:12:29.723Z,98263.44
2023-01-17T16:15:18.295Z,98264.00
2023-01-17T16:18:08.769Z,98261.00
2023-01-17T16:21:00.411Z,98269.66
2023-01-17T16:23:45.831Z,98266.00
2023-01-17T16:26:31.168Z,98269.03
2023-01-17T16:29:17.727Z,98279.63
2023-01-17T16:32:08.645Z,98282.53
2023-01-17T16:34:53.801Z,98279.38
2023-01-17T16:37:41.335Z,98277.91
2023-01-17T16:40:30.095Z,98285.47
2023-01-17T16:43:17.472Z,98287.34
2023-01-17T16:46:02.335Z,98279.94
2023-01-17T16:48:47.204Z,98281.63
2023-01-17T16:51:32.336Z,98282.16
2023-01-17T16:54:17.741Z,98287.03
2023-01-17T16:57:04.047Z,98297.94
2023-01-17T16:59:50.840Z,98294.38
2023-01-17T17:02:38.417Z,98299.66
2023-01-17T17:05:23.512Z,98293.81
2023-01-17T17:08:08.396Z,98289.19
2023-01-17T17:10:53.327Z,98293.41
2023-01-17T17:13:39.381Z,98297.00
2023-01-17T17:16:33.773Z,98297.25
2023-01-17T17:19:19.973Z,98309.38
2023-01-17T17:22:06.411Z,98317.59
2023-01-17T17:24:51.469Z,98310.63
2023-01-17T17:27:37.150Z,98321.91
2023-01-17T17:30:25.782Z,98322.25
2023-01-17T17:33:10.650Z,98326.66
2023-01-17T17:35:56.183Z,98336.56
2023-01-17T17:38:53.440Z,98326.91
2023-01-17T17:41:42.397Z,98336.28
2023-01-17T17:44:27.696Z,98328.06
2023-01-17T17:47:13.153Z,98336.41
2023-01-17T17:49:58.492Z,98344.38
2023-01-17T17:52:44.028Z,98343.31
2023-01-17T17:55:29.267Z,98358.22
2023-01-17T17:58:14.195Z,98353.19
2023-01-17T18:01:04.042Z,98360.97
2023-01-17T18:03:48.979Z,98358.59
2023-01-17T18:06:35.191Z,98353.91
2023-01-17T18:09:20.460Z,98349.66
2023-01-17T18:12:05.999Z,98345.16
2023-01-17T18:14:52.367Z,98348.78
2023-01-17T18:17:37.504Z,98345.59
2023-01-17T18:20:22.381Z,98349.91
2023-01-17T18:23:11.107Z,98344.28
2023-01-17T18:25:56.148Z,98344.88
2023-01-17T18:28:40.785Z,98345.69
2023-01-17T18:31:27.759Z,98348.75
2023-01-17T18:34:16.473Z,98359.16
2023-01-17T18:37:01.404Z,98376.38
2023-01-17T18:39:46.734Z,98372.56
2023-01-17T18:42:32.066Z,98374.53
2023-01-17T18:45:20.377Z,98377.53
2023-01-17T18:48:05.905Z,98367.72
2023-01-17T18:51:00.116Z,98367.91
2023-01-17T18:53:45.968Z,98371.88
2023-01-17T18:56:34.674Z,98375.56
2023-01-17T18:59:21.343Z,98386.50
2023-01-17T19:02:09.612Z,98387.03
2023-01-17T19:04:57.168Z,98398.06
2023-01-17T19:07:43.567Z,98392.25
2023-01-17T19:10:31.867Z,98379.81
2023-01-17T19:13:19.715Z,98381.47
2023-01-17T19:16:08.847Z,98388.47
2023-01-17T19:18:55.531Z,98379.44
2023-01-17T19:21:43.703Z,98376.44
2023-01-17T19:24:30.506Z,98387.69
2023-01-17T19:27:15.441Z,98385.66
2023-01-17T19:30:00.729Z,98379.47
2023-01-17T19:32:46.885Z,98386.31
2023-01-17T19:35:32.320Z,98385.78
2023-01-17T19:38:23.210Z,98385.22
2023-01-17T19:41:30.268Z,98381.56
2023-01-17T19:44:19.026Z,98383.94
2023-01-17T19:47:05.252Z,98384.25
2023-01-17T19:49:50.938Z,98380.69
2023-01-17T19:52:40.135Z,98380.59
2023-01-17T19:55:26.452Z,98389.81
2023-01-17T19:58:17.551Z,98383.72
2023-01-17T20:01:12.868Z,98380.22
2023-01-17T20:03:58.763Z,98391.47
2023-01-17T20:06:45.688Z,98395.56
2023-01-17T20:09:38.224Z,98408.88
2023-01-17T20:12:24.748Z,98420.81
2023-01-17T20:15:12.671Z,98430.84
2023-01-17T20:17:59.198Z,98435.63
2023-01-17T20:20:56.948Z,98429.09
2023-01-17T20:23:43.989Z,98432.69
2023-01-17T20:26:38.814Z,98440.03
2023-01-17T20:29:25.519Z,98454.97
2023-01-17T20:32:13.504Z,98455.84
2023-01-17T20:34:58.639Z,98454.13
2023-01-17T20:37:43.496Z,98457.09
2023-01-17T20:40:28.761Z,98463.09
2023-01-17T20:43:14.347Z,98467.09
2023-01-17T20:45:59.239Z,98471.06
2023-01-17T20:48:49.098Z,98480.31
2023-01-17T20:51:34.568Z,98476.47
2023-01-17T20:54:20.574Z,98471.94
2023-01-17T20:57:06.267Z,98473.00
2023-01-17T20:59:52.491Z,98468.53
2023-01-17T21:02:37.383Z,98463.56
2023-01-17T21:05:23.052Z,98467.91
2023-01-17T21:08:09.256Z,98459.38
2023-01-17T21:11:02.948Z,98463.38
2023-01-17T21:13:51.557Z,98469.75
2023-01-17T21:16:36.515Z,98468.16
2023-01-17T21:19:24.284Z,98473.88
2023-01-17T21:22:09.656Z,98469.25
2023-01-17T21:24:54.503Z,98470.16
2023-01-17T21:27:39.366Z,98468.47
2023-01-17T21:30:24.378Z,98471.38
2023-01-17T21:33:09.511Z,98491.19
2023-01-17T21:35:54.507Z,98493.56
2023-01-17T21:38:41.055Z,98485.75
2023-01-17T21:41:28.775Z,98491.06
2023-01-17T21:44:24.216Z,98495.84
2023-01-17T21:47:09.277Z,98494.72
2023-01-17T21:49:56.919Z,98502.19
2023-01-17T21:52:42.142Z,98507.66
2023-01-17T21:55:45.755Z,98509.81
2023-01-17T21:58:46.088Z,98521.97
2023-01-17T22:01:33.391Z,98522.94
2023-01-17T22:04:18.555Z,98536.44
2023-01-17T22:07:03.973Z,98539.09
2023-01-17T22:09:49.705Z,98538.91
2023-01-17T22:12:35.098Z,98541.56
2023-01-17T22:15:20.044Z,98538.88
2023-01-17T22:18:05.044Z,98544.50
2023-01-17T22:20:50.293Z,98551.78
2023-01-17T22:23:35.578Z,98542.31
2023-01-17T22:26:24.383Z,98551.56
2023-01-17T22:29:10.592Z,98535.25
2023-01-17T22:31:55.645Z,98539.78
2023-01-17T22:34:40.794Z,98546.28
2023-01-17T22:37:26.914Z,98552.53
2023-01-17T22:40:12.719Z,98557.50
2023-01-17T22:42:58.399Z,98561.41
2023-01-17T22:45:45.761Z,98564.97
2023-01-17T22:48:33.215Z,98570.13
2023-01-17T22:51:20.041Z,98566.91
2023-01-17T22:54:05.669Z,98560.81
2023-01-17T22:56:50.461Z,98565.78
2023-01-17T22:59:35.629Z,98571.41
2023-01-17T23:02:20.665Z,98577.41
2023-01-17T23:05:07.376Z,98580.25
2023-01-17T23:07:53.383Z,98579.34
2023-01-17T23:11:01.431Z,98576.44
2023-01-17T23:13:48.389Z,98579.78
2023-01-17T23:16:52.159Z,98583.59
2023-01-17T23:19:40.431Z,98583.22
2023-01-17T23:22:27.507Z,98572.56
2023-01-17T23:25:13.782Z,98581.97
2023-01-17T23:28:11.117Z,98588.97
2023-01-17T23:31:02.961Z,98585.19
2023-01-17T23:33:49.084Z,98574.41
2023-01-17T23:36:34.302Z,98571.75
2023-01-17T23:39:19.195Z,98570.41
2023-01-17T23:42:22.884Z,98565.50
2023-01-17T23:45:10.093Z,98564.88
2023-01-17T23:47:55.532Z,98568.16
2023-01-17T23:50:44.296Z,98554.13
2023-01-17T23:53:29.467Z,98544.84
2023-01-17T23:56:18.491Z,98550.94
2023-01-17T23:59:04.372Z,98552.66
